Time;durP1;ratioP1;P1;durP2;ratioP2;P2;SDS_P1;SDS_P2;PMS_P1;PMS_P2;Temp;Humidity;BMP_temperature;BMP_pressure;BME280_temperature;BME280_humidity;BME280_pressure;Samples;Min_cycle;Max_cycle;Signal;HPM_P1;HPM_P2
2023/09/11 00:02:08;;;;;;;7.90;4.97;;;;;;;17.40;100.00;98732.72;4933578;29;20039;-75
2023/09/11 00:04:33;;;;;;;7.32;4.95;;;;;;;17.29;100.00;98724.34;4920904;29;20023;-76
2023/09/11 00:07:00;;;;;;;9.68;5.05;;;;;;;17.36;100.00;98734.28;4911266;29;20035;-76
2023/09/11 00:09:25;;;;;;;7.78;4.60;;;;;;;17.35;100.00;98727.19;4936599;29;20019;-76
2023/09/11 00:11:51;;;;;;;7.20;5.05;;;;;;;17.41;100.00;98729.72;4920912;29;20030;-76
2023/09/11 00:14:16;;;;;;;10.68;4.88;;;;;;;17.50;100.00;98738.31;4937437;29;20593;-76
2023/09/11 00:16:41;;;;;;;11.75;5.18;;;;;;;17.35;100.00;98721.72;4929404;29;20043;-76
2023/09/11 00:19:09;;;;;;;8.77;5.00;;;;;;;17.15;100.00;98712.09;4943285;29;20043;-76
2023/09/11 00:21:34;;;;;;;6.60;5.07;;;;;;;17.09;100.00;98707.63;4920676;29;20059;-76
2023/09/11 00:23:59;;;;;;;7.20;4.57;;;;;;;16.70;100.00;98652.81;4937707;29;20047;-76
2023/09/11 00:26:25;;;;;;;7.53;4.53;;;;;;;17.00;100.00;98704.47;4921679;29;20024;-76
2023/09/11 00:28:50;;;;;;;7.18;5.20;;;;;;;16.98;100.00;98706.63;4932600;29;20424;-76
2023/09/11 00:31:15;;;;;;;7.30;4.82;;;;;;;16.99;100.00;98721.09;4918703;29;20036;-76
2023/09/11 00:33:41;;;;;;;7.70;5.45;;;;;;;16.91;100.00;98710.59;4925939;29;20081;-76
2023/09/11 00:36:06;;;;;;;11.02;4.82;;;;;;;16.71;100.00;98684.50;4920432;29;20028;-76
2023/09/11 00:38:32;;;;;;;9.63;5.50;;;;;;;16.72;100.00;98702.59;4919608;29;20055;-76
2023/09/11 00:40:57;;;;;;;10.35;5.40;;;;;;;16.71;100.00;98700.09;4917221;29;20028;-76
2023/09/11 00:43:22;;;;;;;8.70;5.07;;;;;;;16.75;100.00;98707.56;4925555;29;20070;-76
2023/09/11 00:45:50;;;;;;;9.88;5.78;;;;;;;16.73;100.00;98697.94;4932478;29;20403;-76
2023/09/11 00:48:17;;;;;;;8.57;5.50;;;;;;;16.78;100.00;98718.00;4932418;29;20035;-76
2023/09/11 00:50:44;;;;;;;9.43;5.07;;;;;;;16.67;100.00;98701.66;4925789;29;20024;-76
2023/09/11 00:53:10;;;;;;;9.05;5.47;;;;;;;16.76;100.00;98711.09;4920892;29;20452;-76
2023/09/11 00:55:36;;;;;;;11.43;5.40;;;;;;;16.73;100.00;98715.16;4920108;29;20396;-76
2023/09/11 00:58:02;;;;;;;9.57;4.90;;;;;;;16.59;100.00;98692.78;4913171;29;20055;-76
2023/09/11 01:00:28;;;;;;;7.22;5.00;;;;;;;16.52;100.00;98694.00;4929653;29;20078;-76
2023/09/11 01:02:53;;;;;;;8.25;4.97;;;;;;;16.57;100.00;98705.84;4910169;29;20038;-75
2023/09/11 01:05:19;;;;;;;8.13;5.07;;;;;;;16.46;100.00;98679.44;4951186;28;20028;-76
2023/09/11 01:07:44;;;;;;;10.23;5.90;;;;;;;16.51;100.00;98685.00;4936444;29;20027;-76
2023/09/11 01:10:10;;;;;;;8.98;5.50;;;;;;;16.47;100.00;98683.00;4919379;29;20026;-76
2023/09/11 01:12:37;;;;;;;8.68;5.43;;;;;;;16.60;100.00;98688.16;4937131;29;20035;-75
2023/09/11 01:15:05;;;;;;;8.88;5.35;;;;;;;16.42;100.00;98675.53;4925919;29;20024;-76
2023/09/11 01:17:46;;;;;;;12.27;5.45;;;;;;;16.46;100.00;98673.97;4928942;29;20039;-76
2023/09/11 01:20:20;;;;;;;8.73;5.40;;;;;;;16.61;100.00;98682.44;4941383;29;20028;-75
2023/09/11 01:23:08;;;;;;;7.90;4.80;;;;;;;16.44;100.00;98676.09;4940070;29;20569;-76
2023/09/11 01:25:52;;;;;;;7.63;4.50;;;;;;;16.34;100.00;98682.19;4924094;29;20024;-76
2023/09/11 01:29:05;;;;;;;7.72;4.82;;;;;;;16.44;100.00;98687.84;4920176;29;20039;-76
2023/09/11 01:31:32;;;;;;;9.88;6.28;;;;;;;16.41;100.00;98693.81;4929288;29;20043;-75
2023/09/11 01:34:01;;;;;;;9.88;5.78;;;;;;;16.31;100.00;98688.16;4915654;29;20040;-75
2023/09/11 01:36:27;;;;;;;9.50;5.85;;;;;;;16.07;100.00;98656.56;4925631;29;20024;-76
2023/09/11 01:38:53;;;;;;;8.80;5.70;;;;;;;16.11;100.00;98663.19;4922164;29;20496;-76
2023/09/11 01:41:20;;;;;;;8.00;5.18;;;;;;;16.22;100.00;98675.97;4936999;29;20132;-76
2023/09/11 01:43:48;;;;;;;9.32;6.05;;;;;;;15.96;100.00;98645.44;4918237;29;20024;-76
2023/09/11 01:46:17;;;;;;;9.82;5.88;;;;;;;16.22;100.00;98695.09;4926056;29;20137;-76
2023/09/11 01:48:44;;;;;;;8.48;5.68;;;;;;;16.06;100.00;98665.81;4935673;29;20027;-76
2023/09/11 01:51:12;;;;;;;16.77;5.85;;;;;;;16.05;100.00;98669.63;4919144;29;20110;-76
2023/09/11 01:53:39;;;;;;;8.48;6.00;;;;;;;16.09;100.00;98700.81;4919303;29;20023;-76
2023/09/11 01:56:05;;;;;;;9.80;5.90;;;;;;;15.94;100.00;98679.50;4918858;29;20436;-76
2023/09/11 01:58:32;;;;;;;11.88;6.30;;;;;;;15.91;100.00;98680.00;4918745;29;20112;-76
2023/09/11 02:00:57;;;;;;;12.02;6.15;;;;;;;15.83;100.00;98681.19;4918042;29;20032;-76
2023/09/11 02:03:22;;;;;;;10.88;5.88;;;;;;;15.83;100.00;98683.91;4936008;29;20511;-76
2023/09/11 02:05:48;;;;;;;11.02;5.78;;;;;;;15.67;100.00;98671.00;4919234;29;20027;-76
2023/09/11 02:08:13;;;;;;;10.60;5.68;;;;;;;15.49;100.00;98644.69;4920715;29;20034;-76
2023/09/11 02:10:38;;;;;;;11.27;5.63;;;;;;;15.64;100.00;98661.41;4922607;29;20024;-76
2023/09/11 02:13:04;;;;;;;8.30;5.28;;;;;;;15.69;100.00;98666.13;4917895;29;20073;-75
2023/09/11 02:15:29;;;;;;;8.95;4.75;;;;;;;15.74;100.00;98675.25;4915460;29;20027;-76
2023/09/11 02:17:54;;;;;;;9.85;5.53;;;;;;;15.75;100.00;98682.38;4920449;29;20027;-75
2023/09/11 02:20:19;;;;;;;7.50;5.68;;;;;;;15.75;100.00;98681.56;4919662;29;20135;-76
2023/09/11 02:22:45;;;;;;;7.90;5.78;;;;;;;15.67;100.00;98680.00;4936819;29;20035;-76
2023/09/11 02:25:10;;;;;;;12.35;6.93;;;;;;;15.62;100.00;98688.06;4934239;29;20039;-75
2023/09/11 02:27:35;;;;;;;10.23;6.00;;;;;;;15.45;100.00;98666.13;4918892;29;20114;-76
2023/09/11 02:30:00;;;;;;;10.75;6.45;;;;;;;15.51;100.00;98684.28;4916151;29;20039;-75
2023/09/11 02:32:26;;;;;;;12.27;6.80;;;;;;;15.29;100.00;98662.22;4918228;29;20671;-75
2023/09/11 02:34:51;;;;;;;12.73;6.90;;;;;;;15.32;100.00;98683.56;4935047;29;20032;-75
2023/09/11 02:37:16;;;;;;;11.02;6.88;;;;;;;15.35;100.00;98676.81;4918131;29;20020;-76
2023/09/11 02:39:42;;;;;;;13.15;6.63;;;;;;;15.45;100.00;98709.75;4916806;29;20510;-76
2023/09/11 02:42:07;;;;;;;11.98;6.65;;;;;;;15.32;100.00;98689.00;4933978;29;20051;-75
2023/09/11 02:44:32;;;;;;;9.35;5.90;;;;;;;15.22;100.00;98686.06;4935152;29;20039;-76
2023/09/11 02:46:58;;;;;;;9.43;6.32;;;;;;;15.10;100.00;98675.16;4931973;29;20625;-76
2023/09/11 02:49:23;;;;;;;10.05;6.07;;;;;;;15.01;100.00;98673.84;4925852;29;20032;-75
2023/09/11 02:51:48;;;;;;;10.80;5.93;;;;;;;15.12;100.00;98685.81;4919708;29;20416;-75
2023/09/11 02:54:13;;;;;;;13.05;6.55;;;;;;;15.00;100.00;98669.44;4919028;29;20241;-76
2023/09/11 02:56:39;;;;;;;11.95;5.95;;;;;;;15.16;100.00;98694.34;4938491;29;20150;-76
2023/09/11 02:59:05;;;;;;;13.27;6.50;;;;;;;15.06;100.00;98687.59;4916707;29;20487;-76
2023/09/11 03:01:31;;;;;;;8.85;6.03;;;;;;;15.11;100.00;98709.50;4917534;29;20031;-76
2023/09/11 03:03:57;;;;;;;8.98;5.50;;;;;;;15.05;100.00;98688.66;4933037;29;20031;-76
2023/09/11 03:06:22;;;;;;;10.07;6.13;;;;;;;15.09;100.00;98695.31;4932706;29;20028;-75
2023/09/11 03:08:47;;;;;;;15.18;6.75;;;;;;;15.15;100.00;98703.59;4933170;29;20032;-76
2023/09/11 03:11:13;;;;;;;9.00;5.90;;;;;;;15.04;100.00;98695.19;4914726;29;20388;-76
2023/09/11 03:13:39;;;;;;;15.57;6.95;;;;;;;15.03;100.00;98693.50;4936217;29;20114;-76
2023/09/11 03:16:08;;;;;;;10.25;7.00;;;;;;;15.09;100.00;98721.69;4916928;29;20444;-76
2023/09/11 03:18:33;;;;;;;;;;;;;;;15.07;100.00;98712.94;4918187;29;20035;-76
2023/09/11 03:20:58;;;;;;;9.95;6.22;;;;;;;14.80;100.00;98669.78;4937090;29;19919;-76
2023/09/11 03:23:24;;;;;;;12.13;6.25;;;;;;;15.00;100.00;98715.78;4919569;29;20114;-76
2023/09/11 03:25:49;;;;;;;11.93;6.13;;;;;;;14.93;100.00;98704.13;4953693;28;20118;-75
2023/09/11 03:28:14;;;;;;;11.85;5.82;;;;;;;14.92;100.00;98701.66;4921423;29;20050;-76
2023/09/11 03:30:40;;;;;;;11.43;6.15;;;;;;;14.80;100.00;98690.72;4942968;28;20410;-76
2023/09/11 03:33:05;;;;;;;17.30;6.32;;;;;;;14.66;100.00;98679.22;4916850;29;20487;-76
2023/09/11 03:35:30;;;;;;;10.48;6.85;;;;;;;14.63;100.00;98685.13;4937380;29;20158;-73
2023/09/11 03:37:55;;;;;;;10.18;6.80;;;;;;;14.74;100.00;98703.41;4915589;29;20030;-76
2023/09/11 03:40:22;;;;;;;12.57;6.88;;;;;;;14.69;100.00;98695.91;4933382;29;20484;-77
2023/09/11 03:42:48;;;;;;;12.55;6.93;;;;;;;14.68;100.00;98697.00;4923807;29;20024;-77
2023/09/11 03:45:13;;;;;;;18.48;7.60;;;;;;;14.71;100.00;98700.31;4933138;29;20111;-77
2023/09/11 03:47:38;;;;;;;16.92;7.25;;;;;;;14.75;100.00;98699.63;4927361;29;20379;-76
2023/09/11 03:50:04;;;;;;;14.32;7.25;;;;;;;14.69;100.00;98689.63;4923659;29;20483;-75
2023/09/11 03:52:30;;;;;;;12.68;7.28;;;;;;;14.76;100.00;98712.16;4921765;29;20027;-76
2023/09/11 03:54:55;;;;;;;13.95;7.22;;;;;;;14.87;100.00;98718.69;4954197;28;20127;-77
2023/09/11 03:57:20;;;;;;;10.30;7.22;;;;;;;14.67;100.00;98681.72;4922996;29;20579;-77
2023/09/11 03:59:45;;;;;;;13.38;7.30;;;;;;;14.55;100.00;98669.13;4925753;29;20543;-76
2023/09/11 04:02:11;;;;;;;11.57;6.57;;;;;;;14.53;100.00;98660.38;4923589;29;20020;-77
2023/09/11 04:04:36;;;;;;;13.75;7.10;;;;;;;14.55;100.00;98666.41;4923721;29;20404;-75
2023/09/11 04:07:02;;;;;;;11.93;6.97;;;;;;;14.69;100.00;98690.47;4947480;28;20055;-75
2023/09/11 04:09:30;;;;;;;13.63;6.90;;;;;;;14.58;100.00;98683.09;4919278;29;20033;-73
2023/09/11 04:11:56;;;;;;;13.90;6.40;;;;;;;14.66;100.00;98674.59;4941201;29;20028;-79
2023/09/11 04:14:21;;;;;;;11.80;5.78;;;;;;;14.52;100.00;98661.41;4926875;29;20031;-76
2023/09/11 04:16:46;;;;;;;9.57;5.88;;;;;;;14.58;100.00;98672.22;4944628;29;20034;-75
2023/09/11 04:19:12;;;;;;;7.75;6.00;;;;;;;14.51;100.00;98662.44;4955527;28;20038;-74
2023/09/11 04:21:37;;;;;;;10.00;5.90;;;;;;;14.38;100.00;98639.84;4947548;29;20400;-73
2023/09/11 04:24:03;;;;;;;11.38;6.85;;;;;;;14.48;100.00;98667.28;4940517;29;20131;-75
2023/09/11 04:26:29;;;;;;;9.30;6.05;;;;;;;14.60;100.00;98685.59;4938205;29;20058;-73
2023/09/11 04:28:55;;;;;;;11.77;6.80;;;;;;;14.62;100.00;98683.50;4943950;29;20032;-77
2023/09/11 04:31:20;;;;;;;14.48;6.22;;;;;;;14.48;100.00;98685.53;4946947;29;20110;-74
2023/09/11 04:33:45;;;;;;;10.10;6.45;;;;;;;14.44;100.00;98681.63;4933641;29;20024;-73
2023/09/11 04:36:11;;;;;;;11.73;6.13;;;;;;;14.37;100.00;98680.88;4941299;29;20047;-78
2023/09/11 04:38:37;;;;;;;9.80;6.53;;;;;;;14.38;100.00;98690.69;4922769;29;20058;-77
2023/09/11 04:41:02;;;;;;;14.10;6.57;;;;;;;14.24;100.00;98666.38;4919984;29;20028;-75
2023/09/11 04:43:27;;;;;;;11.07;6.80;;;;;;;14.12;100.00;98654.66;4949081;29;20158;-77
2023/09/11 04:45:53;;;;;;;11.27;6.65;;;;;;;14.41;100.00;98692.97;4920189;29;20036;-75
2023/09/11 04:48:18;;;;;;;10.60;6.65;;;;;;;14.23;100.00;98667.47;4935878;29;20035;-77
2023/09/11 04:50:43;;;;;;;11.40;6.68;;;;;;;14.47;100.00;98692.03;4919019;29;20492;-77
2023/09/11 04:53:09;;;;;;;10.93;7.03;;;;;;;14.50;100.00;98694.28;4919390;29;20126;-72
2023/09/11 04:55:34;;;;;;;15.02;7.00;;;;;;;14.27;100.00;98675.97;4931054;29;20050;-72
2023/09/11 04:57:59;;;;;;;10.77;7.43;;;;;;;14.54;100.00;98697.41;4937336;28;20034;-73
2023/09/11 05:00:26;;;;;;;11.40;7.35;;;;;;;14.44;100.00;98679.72;4932753;29;20074;-72
2023/09/11 05:02:51;;;;;;;13.13;7.03;;;;;;;14.63;100.00;98693.31;4937166;29;20160;-72
2023/09/11 05:05:16;;;;;;;13.75;7.40;;;;;;;14.59;100.00;98678.47;4919340;29;20503;-73
2023/09/11 05:07:42;;;;;;;15.93;8.05;;;;;;;14.77;100.00;98702.09;4933375;29;20054;-78
2023/09/11 05:10:08;;;;;;;11.35;7.35;;;;;;;14.92;100.00;98713.38;4921777;29;20020;-77
2023/09/11 05:12:34;;;;;;;11.30;6.88;;;;;;;14.76;100.00;98700.44;4942318;29;20067;-77
2023/09/11 05:14:59;;;;;;;11.70;6.65;;;;;;;14.81;100.00;98714.19;4935785;29;20027;-77
2023/09/11 05:17:24;;;;;;;16.95;7.15;;;;;;;14.79;100.00;98711.69;4941241;29;20031;-76
2023/09/11 05:19:50;;;;;;;17.00;6.40;;;;;;;14.78;100.00;98703.78;4925325;29;20042;-76
2023/09/11 05:22:15;;;;;;;9.77;6.50;;;;;;;14.80;100.00;98693.47;4920006;29;20083;-72
2023/09/11 05:24:40;;;;;;;10.75;6.57;;;;;;;14.87;100.00;98689.56;4938774;29;20034;-77
2023/09/11 05:27:06;;;;;;;9.90;5.70;;;;;;;14.92;100.00;98679.88;4935698;29;20034;-74
2023/09/11 05:29:31;;;;;;;15.73;6.03;;;;;;;14.92;100.00;98669.81;4919670;29;20536;-77
2023/09/11 05:31:56;;;;;;;18.83;6.30;;;;;;;15.21;100.00;98697.19;4919971;29;20484;-75
2023/09/11 05:34:22;;;;;;;13.05;5.93;;;;;;;15.40;100.00;98690.56;4918527;29;20101;-73
2023/09/11 05:36:47;;;;;;;13.68;6.50;;;;;;;16.69;100.00;98663.97;4935048;29;20031;-74
2023/09/11 05:39:12;;;;;;;14.23;5.97;;;;;;;18.31;100.00;98663.88;4927950;29;20024;-73
2023/09/11 05:41:38;;;;;;;11.95;5.97;;;;;;;20.05;100.00;98641.38;4932060;29;20567;-73
2023/09/11 05:44:04;;;;;;;10.02;4.85;;;;;;;21.54;100.00;98650.59;4930851;29;20126;-73
2023/09/11 05:46:29;;;;;;;10.73;5.25;;;;;;;22.72;100.00;98661.13;4932385;29;20027;-74
2023/09/11 05:48:55;;;;;;;11.90;4.82;;;;;;;23.92;100.00;98635.72;4932516;29;20062;-75
2023/09/11 05:51:20;;;;;;;11.60;4.70;;;;;;;24.31;100.00;98648.47;4935320;29;20028;-75
2023/09/11 05:53:45;;;;;;;9.82;4.60;;;;;;;25.02;100.00;98660.44;4919484;29;20395;-74
2023/09/11 05:56:11;;;;;;;9.90;4.88;;;;;;;24.93;100.00;98652.03;4936550;29;20030;-74
2023/09/11 05:58:37;;;;;;;8.15;5.00;;;;;;;24.48;100.00;98657.13;4928987;29;20099;-74
2023/09/11 06:01:03;;;;;;;8.15;4.68;;;;;;;25.36;100.00;98658.25;4936726;29;20032;-73
2023/09/11 06:03:29;;;;;;;8.00;4.32;;;;;;;26.28;100.00;98660.34;4933477;29;20503;-73
2023/09/11 06:05:55;;;;;;;11.18;4.90;;;;;;;27.05;99.04;98657.47;4933650;29;20023;-73
2023/09/11 06:08:26;;;;;;;9.32;4.50;;;;;;;29.05;83.76;98658.22;4918686;29;20031;-73
2023/09/11 06:10:52;;;;;;;19.38;4.75;;;;;;;31.40;69.15;98648.59;4939070;29;20042;-74
2023/09/11 06:13:17;;;;;;;17.02;4.93;;;;;;;32.37;63.90;98649.03;4936009;29;20106;-76
2023/09/11 06:15:43;;;;;;;12.75;4.25;;;;;;;31.71;62.35;98668.84;4935431;29;20037;-71
2023/09/11 06:18:08;;;;;;;10.38;4.32;;;;;;;32.53;58.57;98649.97;4932618;29;20078;-77
2023/09/11 06:20:34;;;;;;;9.23;4.40;;;;;;;31.82;60.77;98664.41;4935369;29;20027;-74
2023/09/11 06:23:00;;;;;;;11.25;5.53;;;;;;;33.21;56.60;98650.38;4935333;29;20019;-75
2023/09/11 06:25:25;;;;;;;11.05;3.88;;;;;;;33.76;53.25;98660.69;4935530;29;20031;-73
2023/09/11 06:27:51;;;;;;;10.85;4.03;;;;;;;34.97;50.38;98656.34;4943604;29;20074;-78
2023/09/11 06:30:17;;;;;;;9.73;4.13;;;;;;;35.68;48.69;98656.97;4923407;29;20028;-78
2023/09/11 06:32:42;;;;;;;7.00;3.90;;;;;;;35.96;47.89;98667.91;4937335;29;20027;-75
2023/09/11 06:35:08;;;;;;;12.60;4.47;;;;;;;35.02;49.02;98675.72;4920669;29;20078;-75
2023/09/11 06:37:33;;;;;;;7.18;4.22;;;;;;;35.52;48.86;98665.47;4919049;29;20139;-76
2023/09/11 06:39:58;;;;;;;7.57;3.60;;;;;;;38.02;45.23;98667.44;4933844;29;20111;-76
2023/09/11 06:42:24;;;;;;;6.43;4.50;;;;;;;37.25;44.76;98675.47;4917087;29;20027;-76
2023/09/11 06:44:51;;;;;;;6.65;4.07;;;;;;;37.32;44.42;98648.53;4933080;29;20075;-75
2023/09/11 06:47:16;;;;;;;8.05;3.78;;;;;;;37.09;44.38;98646.66;4934044;29;20040;-79
2023/09/11 06:49:41;;;;;;;7.25;4.40;;;;;;;36.93;44.19;98657.31;4914160;29;20023;-78
2023/09/11 06:52:07;;;;;;;8.80;4.00;;;;;;;36.82;44.63;98660.00;4931867;29;20666;-76
2023/09/11 06:54:32;;;;;;;7.88;4.10;;;;;;;36.49;45.48;98650.25;4918200;29;20027;-74
2023/09/11 06:56:57;;;;;;;5.73;4.20;;;;;;;35.40;46.27;98662.88;4915508;29;20031;-74
2023/09/11 06:59:22;;;;;;;6.10;3.93;;;;;;;36.20;45.98;98677.19;4935004;29;20295;-74
2023/09/11 07:01:48;;;;;;;9.77;3.90;;;;;;;35.90;46.66;98669.41;4933521;29;20722;-74
2023/09/11 07:04:14;;;;;;;6.32;4.28;;;;;;;34.93;48.53;98671.53;4933633;29;20295;-74
2023/09/11 07:06:40;;;;;;;6.25;4.00;;;;;;;35.87;48.04;98652.44;4934077;29;20034;-74
2023/09/11 07:09:06;;;;;;;7.22;4.93;;;;;;;34.71;49.34;98653.38;4936920;29;20395;-74
2023/09/11 07:11:31;;;;;;;9.07;4.82;;;;;;;36.09;47.68;98664.94;4935902;29;20059;-74
2023/09/11 07:13:57;;;;;;;11.10;5.00;;;;;;;36.29;46.67;98663.66;4935389;29;20031;-76
2023/09/11 07:16:22;;;;;;;10.45;5.00;;;;;;;35.30;49.09;98672.72;4915958;29;20031;-71
2023/09/11 07:18:48;;;;;;;9.73;4.43;;;;;;;36.22;47.39;98668.34;4933301;29;20423;-73
2023/09/11 07:21:13;;;;;;;8.25;5.00;;;;;;;37.29;46.37;98648.09;4936300;29;20023;-73
2023/09/11 07:23:39;;;;;;;8.80;5.13;;;;;;;36.07;47.36;98676.56;4935102;29;20106;-73
2023/09/11 07:26:04;;;;;;;9.27;4.75;;;;;;;36.23;47.44;98659.50;4935176;28;20035;-73
2023/09/11 07:28:29;;;;;;;7.68;4.82;;;;;;;37.06;46.61;98668.00;4940077;29;20035;-73
2023/09/11 07:30:55;;;;;;;6.63;4.57;;;;;;;37.69;45.89;98646.53;4939849;29;20031;-72
2023/09/11 07:33:21;;;;;;;9.40;4.97;;;;;;;38.43;44.84;98670.16;4934478;29;20480;-73
2023/09/11 07:35:46;;;;;;;9.52;5.25;;;;;;;37.83;45.05;98654.31;4916468;29;20028;-73
2023/09/11 07:38:12;;;;;;;7.32;4.63;;;;;;;38.36;44.11;98659.63;4933722;29;20369;-73
2023/09/11 07:40:38;;;;;;;7.00;4.10;;;;;;;39.33;43.48;98667.81;4933793;29;20024;-72
2023/09/11 07:43:04;;;;;;;8.70;4.45;;;;;;;39.87;42.39;98663.09;4934087;29;20484;-73
2023/09/11 07:45:29;;;;;;;10.15;4.30;;;;;;;39.52;42.56;98667.47;4930119;29;20201;-72
2023/09/11 07:47:54;;;;;;;8.48;4.20;;;;;;;38.63;43.82;98667.88;4932441;29;20030;-73
2023/09/11 07:50:20;;;;;;;4.77;4.20;;;;;;;38.30;44.21;98660.34;4931475;29;20022;-72
2023/09/11 07:52:45;;;;;;;5.95;4.43;;;;;;;38.58;44.66;98649.28;4932779;29;20644;-72
2023/09/11 07:55:11;;;;;;;7.05;4.10;;;;;;;38.50;43.76;98658.91;4933946;29;20102;-72
2023/09/11 07:57:39;;;;;;;10.60;4.30;;;;;;;40.49;41.67;98656.22;4932341;29;20123;-72
2023/09/11 08:00:07;;;;;;;5.47;4.18;;;;;;;39.76;42.68;98665.91;4927829;29;20384;-72
2023/09/11 08:02:33;;;;;;;7.65;3.95;;;;;;;39.80;42.18;98657.41;4938324;29;20027;-73
2023/09/11 08:04:58;;;;;;;5.72;4.00;;;;;;;38.92;43.05;98656.75;4934037;29;20038;-73
2023/09/11 08:07:24;;;;;;;5.80;3.95;;;;;;;39.07;43.37;98661.25;4937338;29;20027;-73
2023/09/11 08:09:52;;;;;;;7.38;3.90;;;;;;;40.13;41.63;98649.75;4936593;29;20024;-74
2023/09/11 08:12:17;;;;;;;7.85;4.25;;;;;;;40.15;42.12;98661.50;4937566;29;20047;-73
2023/09/11 08:14:44;;;;;;;9.82;4.32;;;;;;;39.19;42.64;98662.91;4939813;29;20030;-73
2023/09/11 08:17:09;;;;;;;7.10;4.05;;;;;;;41.01;40.03;98656.47;4916663;29;20031;-73
2023/09/11 08:19:35;;;;;;;7.50;4.32;;;;;;;41.60;38.78;98656.59;4934050;29;20036;-74
2023/09/11 08:22:00;;;;;;;8.13;4.17;;;;;;;41.21;38.30;98659.63;4938064;29;20024;-73
2023/09/11 08:24:25;;;;;;;7.90;4.05;;;;;;;42.57;36.37;98658.66;4920712;29;20349;-73
2023/09/11 08:26:50;;;;;;;9.67;4.50;;;;;;;41.09;38.84;98649.56;4936205;29;20032;-73
2023/09/11 08:29:18;;;;;;;7.80;4.10;;;;;;;42.98;36.92;98651.31;4937682;29;20627;-73
2023/09/11 08:31:43;;;;;;;10.90;4.27;;;;;;;39.56;40.19;98667.47;4937326;29;20282;-73
2023/09/11 08:34:09;;;;;;;6.05;4.10;;;;;;;41.18;38.40;98641.41;4934054;29;20023;-74
2023/09/11 08:36:34;;;;;;;8.00;4.25;;;;;;;39.43;40.36;98653.72;4920035;29;20078;-73
2023/09/11 08:38:59;;;;;;;6.97;3.92;;;;;;;40.22;40.29;98658.66;4937077;29;20059;-73
2023/09/11 08:41:26;;;;;;;9.73;3.92;;;;;;;42.12;37.75;98640.81;4920246;29;20071;-75
2023/09/11 08:43:51;;;;;;;8.52;3.50;;;;;;;43.51;36.82;98666.88;4932675;29;20028;-75
2023/09/11 08:46:18;;;;;;;7.82;3.92;;;;;;;43.06;36.72;98658.53;4935252;29;20035;-74
2023/09/11 08:48:45;;;;;;;5.85;3.70;;;;;;;43.78;35.99;98671.78;4925936;29;20648;-74
2023/09/11 08:51:16;;;;;;;4.97;3.70;;;;;;;43.06;35.99;98664.22;4915845;29;20110;-74
2023/09/11 08:53:45;;;;;;;7.60;3.60;;;;;;;43.20;36.83;98651.84;4926722;29;20300;-74
2023/09/11 08:56:11;;;;;;;6.03;3.50;;;;;;;44.34;34.87;98655.78;4930518;29;20131;-74
2023/09/11 08:58:39;;;;;;;7.88;3.53;;;;;;;44.53;35.45;98657.09;4937325;29;20526;-74
2023/09/11 09:01:06;;;;;;;7.38;3.42;;;;;;;43.17;35.18;98652.72;4933116;29;20509;-74
2023/09/11 09:03:32;;;;;;;6.30;3.25;;;;;;;43.60;35.73;98663.50;4918025;29;20020;-75
2023/09/11 09:05:57;;;;;;;9.30;3.30;;;;;;;44.88;34.21;98631.16;4922123;29;20028;-74
2023/09/11 09:08:23;;;;;;;6.43;4.18;;;;;;;44.33;34.60;98664.78;4919508;29;20126;-74
2023/09/11 09:10:49;;;;;;;4.20;3.20;;;;;;;44.53;34.82;98657.09;4937113;29;20114;-74
2023/09/11 09:13:15;;;;;;;6.28;3.80;;;;;;;44.12;34.22;98635.38;4934730;29;20512;-74
2023/09/11 09:15:41;;;;;;;6.22;3.40;;;;;;;43.39;35.64;98638.97;4933844;29;20034;-74
2023/09/11 09:18:09;;;;;;;4.93;3.00;;;;;;;44.21;34.97;98648.31;4935905;29;20023;-74
2023/09/11 09:20:36;;;;;;;8.80;3.60;;;;;;;41.66;36.13;98636.28;4913218;29;20058;-74
2023/09/11 09:23:01;;;;;;;5.85;3.13;;;;;;;43.08;35.40;98634.09;4933223;29;20130;-74
2023/09/11 09:25:28;;;;;;;7.65;3.53;;;;;;;43.93;35.41;98642.63;4918314;29;20106;-74
2023/09/11 09:27:55;;;;;;;8.02;2.75;;;;;;;44.44;34.87;98638.94;4933534;29;20099;-74
2023/09/11 09:30:23;;;;;;;;;;;;;;;44.46;34.92;98636.44;4930740;29;20399;-74
2023/09/11 09:32:48;;;;;;;;;;;;;;;45.61;33.21;98634.88;4918827;29;20061;-74
2023/09/11 09:35:15;;;;;;;7.72;3.50;;;;;;;45.82;33.20;98627.81;4933578;29;20013;-78
2023/09/11 09:37:48;;;;;;;5.38;3.28;;;;;;;45.18;33.52;98630.13;4935867;29;20110;-79
2023/09/11 09:40:26;;;;;;;5.13;3.17;;;;;;;45.80;32.29;98616.84;4916640;29;20047;-78
2023/09/11 09:42:51;;;;;;;;;;;;;;;45.56;33.13;98635.41;4936845;29;20031;-74
2023/09/11 09:45:51;;;;;;;7.00;3.60;;;;;;;44.91;33.72;98636.81;4935608;29;19919;-74
2023/09/11 09:48:18;;;;;;;6.35;3.20;;;;;;;45.68;33.31;98631.84;4898112;29;20032;-78
2023/09/11 09:50:57;;;;;;;6.05;3.30;;;;;;;45.95;33.58;98627.94;4936361;29;20666;-76
2023/09/11 09:53:30;;;;;;;5.68;2.78;;;;;;;47.18;32.64;98622.09;4934613;29;20031;-77
2023/09/11 09:55:58;;;;;;;4.78;3.15;;;;;;;45.82;32.84;98620.03;4932488;29;20129;-75
2023/09/11 09:58:27;;;;;;;4.93;3.00;;;;;;;46.13;32.45;98619.72;4914977;29;20028;-74
2023/09/11 10:01:00;;;;;;;5.05;2.70;;;;;;;46.25;32.85;98601.81;4935242;29;20027;-74
2023/09/11 10:03:27;;;;;;;5.68;3.83;;;;;;;46.32;32.53;98606.56;4935500;29;20484;-74
2023/09/11 10:05:52;;;;;;;5.50;3.45;;;;;;;46.90;32.47;98608.59;4934723;29;20050;-74
2023/09/11 10:08:18;;;;;;;4.18;2.97;;;;;;;47.27;31.20;98600.53;4918350;29;20115;-74
2023/09/11 10:10:43;;;;;;;5.20;3.30;;;;;;;45.91;32.71;98596.56;4922997;29;20036;-74
2023/09/11 10:13:13;;;;;;;5.67;3.30;;;;;;;47.60;32.39;98599.06;4935119;29;20023;-74
2023/09/11 10:15:40;;;;;;;11.32;2.95;;;;;;;47.51;31.30;98601.84;4936281;29;20400;-76
2023/09/11 10:18:08;;;;;;;7.07;3.38;;;;;;;47.46;32.01;98585.22;4939703;29;20055;-72
2023/09/11 10:20:33;;;;;;;6.05;3.53;;;;;;;46.99;32.20;98585.84;4932173;29;20074;-73
2023/09/11 10:23:00;;;;;;;4.78;2.97;;;;;;;47.55;31.61;98588.19;4918046;29;20035;-72
2023/09/11 10:25:29;;;;;;;;;;;;;;;47.47;31.86;98586.81;4934674;29;20031;-70
2023/09/11 10:28:17;;;;;;;4.68;2.80;;;;;;;48.02;31.38;98584.56;4929855;29;20327;-73
2023/09/11 10:30:57;;;;;;;3.58;2.70;;;;;;;49.35;30.66;98582.53;4934233;29;20082;-72
2023/09/11 10:33:26;;;;;;;6.97;3.10;;;;;;;47.43;31.73;98571.78;4930727;29;20031;-72
2023/09/11 10:35:56;;;;;;;7.72;3.20;;;;;;;48.40;30.22;98575.06;4928629;29;20519;-72
2023/09/11 10:38:21;;;;;;;5.20;2.97;;;;;;;47.88;30.37;98570.75;4934558;29;20122;-73
2023/09/11 10:40:47;;;;;;;7.35;3.20;;;;;;;47.66;30.61;98566.97;4928996;29;20114;-72
2023/09/11 10:43:13;;;;;;;5.80;2.78;;;;;;;47.03;30.47;98572.19;4937329;29;20031;-72
2023/09/11 10:45:40;;;;;;;4.82;2.63;;;;;;;48.82;29.21;98571.06;4933950;29;20075;-73
2023/09/11 10:48:06;;;;;;;6.50;2.88;;;;;;;48.49;29.16;98569.38;4929855;29;20055;-72
2023/09/11 10:50:38;;;;;;;5.65;2.58;;;;;;;48.27;29.43;98559.97;4917357;29;20055;-72
2023/09/11 10:53:08;;;;;;;4.03;2.40;;;;;;;48.75;28.75;98562.72;4934666;29;20420;-73
2023/09/11 10:55:34;;;;;;;6.88;3.10;;;;;;;46.31;28.28;98557.13;4931157;29;20103;-73
2023/09/11 10:58:03;;;;;;;5.85;2.72;;;;;;;46.52;28.38;98534.88;4934542;29;20468;-73
2023/09/11 11:00:28;;;;;;;5.82;2.83;;;;;;;47.09;30.07;98549.56;4917024;29;20040;-72
2023/09/11 11:02:57;;;;;;;6.15;2.70;;;;;;;47.51;29.41;98544.53;4934932;29;20058;-72
2023/09/11 11:05:23;;;;;;;6.72;2.72;;;;;;;47.05;29.59;98543.91;4936345;29;20035;-72
2023/09/11 11:07:50;;;;;;;8.40;3.38;;;;;;;48.00;28.59;98555.56;4934967;29;20060;-72
2023/09/11 11:10:16;;;;;;;5.28;3.08;;;;;;;47.92;28.67;98547.66;4938635;29;20063;-72
2023/09/11 11:12:44;;;;;;;6.57;3.10;;;;;;;46.65;28.84;98544.28;4934681;29;20116;-72
2023/09/11 11:15:19;;;;;;;4.93;2.50;;;;;;;48.08;29.15;98544.59;4933656;29;20568;-72
2023/09/11 11:17:44;;;;;;;7.82;3.10;;;;;;;47.24;30.76;98544.94;4934160;29;20031;-73
2023/09/11 11:20:11;;;;;;;6.65;2.80;;;;;;;46.78;30.00;98525.09;4926553;29;20070;-72
2023/09/11 11:22:40;;;;;;;5.78;2.90;;;;;;;46.75;30.11;98522.34;4934365;29;20019;-73
2023/09/11 11:25:10;;;;;;;7.93;3.20;;;;;;;48.09;29.51;98533.97;4933596;29;20095;-73